sensor_id;sensor_type;location;lat;lon;timestamp;temperature;humidity
19622;DHT22;9958;33.196;-97.114;2023-11-21T00:02:08;18.20;99.90
19622;DHT22;9958;33.196;-97.114;2023-11-21T00:04:38;18.30;99.90
19622;DHT22;9958;33.196;-97.114;2023-11-21T00:07:06;18.30;99.90
19622;DHT22;9958;33.196;-97.114;2023-11-21T00:09:35;18.20;99.90
19622;DHT22;9958;33.196;-97.114;2023-11-21T00:12:04;18.20;99.90
19622;DHT22;9958;33.196;-97.114;2023-11-21T00:14:32;18.20;99.90
19622;DHT22;9958;33.196;-97.114;2023-11-21T00:17:00;18.20;99.90
19622;DHT22;9958;33.196;-97.114;2023-11-21T00:19:29;18.20;99.90
19622;DHT22;9958;33.196;-97.114;2023-11-21T00:21:58;18.10;99.90
19622;DHT22;9958;33.196;-97.114;2023-11-21T00:24:27;18.00;99.90
19622;DHT22;9958;33.196;-97.114;2023-11-21T00:26:55;18.00;99.90
19622;DHT22;9958;33.196;-97.114;2023-11-21T00:29:23;17.90;99.90
19622;DHT22;9958;33.196;-97.114;2023-11-21T00:31:52;17.90;99.90
19622;DHT22;9958;33.196;-97.114;2023-11-21T00:34:20;17.80;99.90
19622;DHT22;9958;33.196;-97.114;2023-11-21T00:36:48;17.80;99.90
19622;DHT22;9958;33.196;-97.114;2023-11-21T00:39:18;17.70;99.90
19622;DHT22;9958;33.196;-97.114;2023-11-21T00:41:47;17.60;99.90
19622;DHT22;9958;33.196;-97.114;2023-11-21T00:44:15;17.50;99.90
19622;DHT22;9958;33.196;-97.114;2023-11-21T00:46:43;17.50;99.90
19622;DHT22;9958;33.196;-97.114;2023-11-21T00:49:12;17.50;99.90
19622;DHT22;9958;33.196;-97.114;2023-11-21T00:51:41;17.40;99.90
19622;DHT22;9958;33.196;-97.114;2023-11-21T00:54:09;17.30;99.90
19622;DHT22;9958;33.196;-97.114;2023-11-21T00:56:39;17.30;99.90
19622;DHT22;9958;33.196;-97.114;2023-11-21T00:59:07;17.30;99.90
19622;DHT22;9958;33.196;-97.114;2023-11-21T01:01:37;17.20;99.90
19622;DHT22;9958;33.196;-97.114;2023-11-21T01:04:05;17.10;99.90
19622;DHT22;9958;33.196;-97.114;2023-11-21T01:06:34;17.10;99.90
19622;DHT22;9958;33.196;-97.114;2023-11-21T01:09:03;17.00;99.90
19622;DHT22;9958;33.196;-97.114;2023-11-21T01:11:34;17.00;99.90
19622;DHT22;9958;33.196;-97.114;2023-11-21T01:14:05;16.90;99.90
19622;DHT22;9958;33.196;-97.114;2023-11-21T01:16:35;16.80;99.90
19622;DHT22;9958;33.196;-97.114;2023-11-21T01:19:03;16.70;99.90
19622;DHT22;9958;33.196;-97.114;2023-11-21T01:21:32;16.70;99.90
19622;DHT22;9958;33.196;-97.114;2023-11-21T01:24:00;16.60;99.90
19622;DHT22;9958;33.196;-97.114;2023-11-21T01:26:29;16.50;99.90
19622;DHT22;9958;33.196;-97.114;2023-11-21T01:28:57;16.50;99.90
19622;DHT22;9958;33.196;-97.114;2023-11-21T01:31:27;16.40;99.90
19622;DHT22;9958;33.196;-97.114;2023-11-21T01:33:56;16.30;99.90
19622;DHT22;9958;33.196;-97.114;2023-11-21T01:36:30;16.20;99.90
19622;DHT22;9958;33.196;-97.114;2023-11-21T01:39:00;16.20;99.90
19622;DHT22;9958;33.196;-97.114;2023-11-21T01:41:34;16.10;99.90
19622;DHT22;9958;33.196;-97.114;2023-11-21T01:44:03;16.10;99.90
19622;DHT22;9958;33.196;-97.114;2023-11-21T01:46:36;16.00;99.90
19622;DHT22;9958;33.196;-97.114;2023-11-21T01:49:04;15.90;99.90
19622;DHT22;9958;33.196;-97.114;2023-11-21T01:51:33;15.80;99.90
19622;DHT22;9958;33.196;-97.114;2023-11-21T01:54:03;15.80;99.90
19622;DHT22;9958;33.196;-97.114;2023-11-21T01:56:32;15.70;99.90
19622;DHT22;9958;33.196;-97.114;2023-11-21T01:59:01;15.70;99.90
19622;DHT22;9958;33.196;-97.114;2023-11-21T02:01:29;15.60;99.90
19622;DHT22;9958;33.196;-97.114;2023-11-21T02:03:59;15.60;99.90
19622;DHT22;9958;33.196;-97.114;2023-11-21T02:06:28;15.50;99.90
19622;DHT22;9958;33.196;-97.114;2023-11-21T02:08:57;15.50;99.90
19622;DHT22;9958;33.196;-97.114;2023-11-21T02:11:26;15.40;99.90
19622;DHT22;9958;33.196;-97.114;2023-11-21T02:13:54;15.40;99.90
19622;DHT22;9958;33.196;-97.114;2023-11-21T02:16:23;15.30;99.90
19622;DHT22;9958;33.196;-97.114;2023-11-21T02:18:51;15.20;99.90
19622;DHT22;9958;33.196;-97.114;2023-11-21T02:21:22;15.20;99.90
19622;DHT22;9958;33.196;-97.114;2023-11-21T02:23:52;15.10;99.90
19622;DHT22;9958;33.196;-97.114;2023-11-21T02:26:21;15.00;99.90
19622;DHT22;9958;33.196;-97.114;2023-11-21T02:28:49;15.00;99.90
19622;DHT22;9958;33.196;-97.114;2023-11-21T02:31:19;14.90;99.90
19622;DHT22;9958;33.196;-97.114;2023-11-21T02:33:49;14.90;99.90
19622;DHT22;9958;33.196;-97.114;2023-11-21T02:36:17;14.80;99.90
19622;DHT22;9958;33.196;-97.114;2023-11-21T02:38:48;14.80;99.90
19622;DHT22;9958;33.196;-97.114;2023-11-21T02:41:18;14.80;99.90
19622;DHT22;9958;33.196;-97.114;2023-11-21T02:43:46;14.70;99.90
19622;DHT22;9958;33.196;-97.114;2023-11-21T02:46:14;14.60;99.90
19622;DHT22;9958;33.196;-97.114;2023-11-21T02:48:43;14.60;99.90
19622;DHT22;9958;33.196;-97.114;2023-11-21T02:51:11;14.50;99.90
19622;DHT22;9958;33.196;-97.114;2023-11-21T02:53:40;14.50;99.90
19622;DHT22;9958;33.196;-97.114;2023-11-21T02:56:08;14.50;99.90
19622;DHT22;9958;33.196;-97.114;2023-11-21T02:58:40;14.40;99.90
19622;DHT22;9958;33.196;-97.114;2023-11-21T03:01:09;14.40;99.90
19622;DHT22;9958;33.196;-97.114;2023-11-21T03:03:38;14.30;99.90
19622;DHT22;9958;33.196;-97.114;2023-11-21T03:06:08;14.30;99.90
19622;DHT22;9958;33.196;-97.114;2023-11-21T03:08:36;14.20;99.90
19622;DHT22;9958;33.196;-97.114;2023-11-21T03:11:05;14.20;99.90
19622;DHT22;9958;33.196;-97.114;2023-11-21T03:13:33;14.10;99.90
19622;DHT22;9958;33.196;-97.114;2023-11-21T03:16:03;14.00;99.90
19622;DHT22;9958;33.196;-97.114;2023-11-21T03:18:32;14.00;99.90
19622;DHT22;9958;33.196;-97.114;2023-11-21T03:21:00;13.90;99.90
19622;DHT22;9958;33.196;-97.114;2023-11-21T03:23:29;13.90;99.90
19622;DHT22;9958;33.196;-97.114;2023-11-21T03:25:57;13.90;99.90
19622;DHT22;9958;33.196;-97.114;2023-11-21T03:28:26;13.90;99.90
19622;DHT22;9958;33.196;-97.114;2023-11-21T03:30:54;13.80;99.90
19622;DHT22;9958;33.196;-97.114;2023-11-21T03:33:24;13.70;99.90
19622;DHT22;9958;33.196;-97.114;2023-11-21T03:35:53;13.70;99.90
19622;DHT22;9958;33.196;-97.114;2023-11-21T03:38:21;13.70;99.90
19622;DHT22;9958;33.196;-97.114;2023-11-21T03:40:49;13.60;99.90
19622;DHT22;9958;33.196;-97.114;2023-11-21T03:43:18;13.60;99.90
19622;DHT22;9958;33.196;-97.114;2023-11-21T03:45:46;13.60;99.90
19622;DHT22;9958;33.196;-97.114;2023-11-21T03:48:15;13.50;99.90
19622;DHT22;9958;33.196;-97.114;2023-11-21T03:50:44;13.40;99.90
19622;DHT22;9958;33.196;-97.114;2023-11-21T03:53:13;13.50;99.90
19622;DHT22;9958;33.196;-97.114;2023-11-21T03:55:42;13.40;99.90
19622;DHT22;9958;33.196;-97.114;2023-11-21T03:58:10;13.40;99.90
19622;DHT22;9958;33.196;-97.114;2023-11-21T04:00:38;13.30;99.90
19622;DHT22;9958;33.196;-97.114;2023-11-21T04:03:07;13.30;99.90
19622;DHT22;9958;33.196;-97.114;2023-11-21T04:05:35;13.30;99.90
19622;DHT22;9958;33.196;-97.114;2023-11-21T04:08:05;13.20;99.90
19622;DHT22;9958;33.196;-97.114;2023-11-21T04:10:33;13.20;99.90
19622;DHT22;9958;33.196;-97.114;2023-11-21T04:13:02;13.20;99.90
19622;DHT22;9958;33.196;-97.114;2023-11-21T04:15:31;13.20;99.90
19622;DHT22;9958;33.196;-97.114;2023-11-21T04:17:59;13.10;99.90
19622;DHT22;9958;33.196;-97.114;2023-11-21T04:20:28;13.10;99.90
19622;DHT22;9958;33.196;-97.114;2023-11-21T04:22:56;13.10;99.90
19622;DHT22;9958;33.196;-97.114;2023-11-21T04:25:26;13.00;99.90
19622;DHT22;9958;33.196;-97.114;2023-11-21T04:27:55;12.90;99.90
19622;DHT22;9958;33.196;-97.114;2023-11-21T04:30:23;12.90;99.90
19622;DHT22;9958;33.196;-97.114;2023-11-21T04:32:51;12.90;99.90
19622;DHT22;9958;33.196;-97.114;2023-11-21T04:35:20;12.90;99.90
19622;DHT22;9958;33.196;-97.114;2023-11-21T04:37:48;12.90;99.90
19622;DHT22;9958;33.196;-97.114;2023-11-21T04:40:17;12.80;99.90
19622;DHT22;9958;33.196;-97.114;2023-11-21T04:42:48;12.80;99.90
19622;DHT22;9958;33.196;-97.114;2023-11-21T04:45:17;12.70;99.90
19622;DHT22;9958;33.196;-97.114;2023-11-21T04:47:45;12.80;99.90
19622;DHT22;9958;33.196;-97.114;2023-11-21T04:50:13;12.70;99.90
19622;DHT22;9958;33.196;-97.114;2023-11-21T04:52:41;12.70;99.90
19622;DHT22;9958;33.196;-97.114;2023-11-21T04:55:10;12.60;99.90
19622;DHT22;9958;33.196;-97.114;2023-11-21T04:57:38;12.60;99.90
19622;DHT22;9958;33.196;-97.114;2023-11-21T05:00:10;12.60;99.90
19622;DHT22;9958;33.196;-97.114;2023-11-21T05:02:39;12.60;99.90
19622;DHT22;9958;33.196;-97.114;2023-11-21T05:05:08;12.60;99.90
19622;DHT22;9958;33.196;-97.114;2023-11-21T05:07:37;12.70;99.90
19622;DHT22;9958;33.196;-97.114;2023-11-21T05:10:06;12.70;99.90
19622;DHT22;9958;33.196;-97.114;2023-11-21T05:12:37;12.70;99.90
19622;DHT22;9958;33.196;-97.114;2023-11-21T05:15:06;12.70;99.90
19622;DHT22;9958;33.196;-97.114;2023-11-21T05:17:39;12.80;99.90
19622;DHT22;9958;33.196;-97.114;2023-11-21T05:20:10;12.80;99.90
19622;DHT22;9958;33.196;-97.114;2023-11-21T05:22:40;12.80;99.90
19622;DHT22;9958;33.196;-97.114;2023-11-21T05:25:09;12.80;99.90
19622;DHT22;9958;33.196;-97.114;2023-11-21T05:27:37;12.80;99.90
19622;DHT22;9958;33.196;-97.114;2023-11-21T05:30:06;12.90;99.90
19622;DHT22;9958;33.196;-97.114;2023-11-21T05:32:40;12.80;99.90
19622;DHT22;9958;33.196;-97.114;2023-11-21T05:35:10;12.80;99.90
19622;DHT22;9958;33.196;-97.114;2023-11-21T05:37:42;12.80;99.90
19622;DHT22;9958;33.196;-97.114;2023-11-21T05:40:11;12.80;99.90
19622;DHT22;9958;33.196;-97.114;2023-11-21T05:42:40;12.80;99.90
19622;DHT22;9958;33.196;-97.114;2023-11-21T05:45:09;12.70;99.90
19622;DHT22;9958;33.196;-97.114;2023-11-21T05:47:40;12.80;99.90
19622;DHT22;9958;33.196;-97.114;2023-11-21T05:50:09;12.70;99.90
19622;DHT22;9958;33.196;-97.114;2023-11-21T05:52:38;12.80;99.90
19622;DHT22;9958;33.196;-97.114;2023-11-21T05:55:07;12.80;99.90
19622;DHT22;9958;33.196;-97.114;2023-11-21T05:57:36;12.80;99.90
19622;DHT22;9958;33.196;-97.114;2023-11-21T06:00:05;12.70;99.90
19622;DHT22;9958;33.196;-97.114;2023-11-21T06:02:39;12.80;99.90
19622;DHT22;9958;33.196;-97.114;2023-11-21T06:05:08;12.80;99.90
19622;DHT22;9958;33.196;-97.114;2023-11-21T06:07:37;12.80;99.90
19622;DHT22;9958;33.196;-97.114;2023-11-21T06:10:07;12.70;99.90
19622;DHT22;9958;33.196;-97.114;2023-11-21T06:12:37;12.70;99.90
19622;DHT22;9958;33.196;-97.114;2023-11-21T06:15:07;12.70;99.90
19622;DHT22;9958;33.196;-97.114;2023-11-21T06:17:36;12.70;99.90
19622;DHT22;9958;33.196;-97.114;2023-11-21T06:20:08;12.60;99.90
19622;DHT22;9958;33.196;-97.114;2023-11-21T06:22:40;12.60;99.90
19622;DHT22;9958;33.196;-97.114;2023-11-21T06:25:10;12.60;99.90
19622;DHT22;9958;33.196;-97.114;2023-11-21T06:27:40;12.60;99.90
19622;DHT22;9958;33.196;-97.114;2023-11-21T06:30:09;12.60;99.90
19622;DHT22;9958;33.196;-97.114;2023-11-21T06:32:38;12.60;99.90
19622;DHT22;9958;33.196;-97.114;2023-11-21T06:35:09;12.50;99.90
19622;DHT22;9958;33.196;-97.114;2023-11-21T06:37:38;12.50;99.90
19622;DHT22;9958;33.196;-97.114;2023-11-21T06:40:07;12.50;99.90
19622;DHT22;9958;33.196;-97.114;2023-11-21T06:42:36;12.50;99.90
19622;DHT22;9958;33.196;-97.114;2023-11-21T06:45:07;12.40;99.90
19622;DHT22;9958;33.196;-97.114;2023-11-21T06:47:37;12.40;99.90
19622;DHT22;9958;33.196;-97.114;2023-11-21T06:50:08;12.30;99.90
19622;DHT22;9958;33.196;-97.114;2023-11-21T06:52:36;12.30;99.90
19622;DHT22;9958;33.196;-97.114;2023-11-21T06:55:06;12.20;99.90
19622;DHT22;9958;33.196;-97.114;2023-11-21T06:57:35;12.10;99.90
19622;DHT22;9958;33.196;-97.114;2023-11-21T07:00:04;12.10;99.90
19622;DHT22;9958;33.196;-97.114;2023-11-21T07:02:35;12.10;99.90
19622;DHT22;9958;33.196;-97.114;2023-11-21T07:05:04;12.00;99.90
19622;DHT22;9958;33.196;-97.114;2023-11-21T07:07:34;12.00;99.90
19622;DHT22;9958;33.196;-97.114;2023-11-21T07:10:04;12.00;99.90
19622;DHT22;9958;33.196;-97.114;2023-11-21T07:12:32;11.90;99.90
19622;DHT22;9958;33.196;-97.114;2023-11-21T07:15:01;12.00;99.90
19622;DHT22;9958;33.196;-97.114;2023-11-21T07:17:31;12.00;99.90
19622;DHT22;9958;33.196;-97.114;2023-11-21T07:20:01;11.90;99.90
19622;DHT22;9958;33.196;-97.114;2023-11-21T07:22:30;11.90;99.90
19622;DHT22;9958;33.196;-97.114;2023-11-21T07:25:00;11.80;99.90
19622;DHT22;9958;33.196;-97.114;2023-11-21T07:27:28;11.80;99.90
19622;DHT22;9958;33.196;-97.114;2023-11-21T07:29:56;11.70;99.90
19622;DHT22;9958;33.196;-97.114;2023-11-21T07:32:25;11.70;99.90
19622;DHT22;9958;33.196;-97.114;2023-11-21T07:34:53;11.60;99.90
19622;DHT22;9958;33.196;-97.114;2023-11-21T07:37:23;11.60;99.90
19622;DHT22;9958;33.196;-97.114;2023-11-21T07:39:52;11.60;99.90
19622;DHT22;9958;33.196;-97.114;2023-11-21T07:42:24;11.60;99.90
19622;DHT22;9958;33.196;-97.114;2023-11-21T07:44:53;11.60;99.90
19622;DHT22;9958;33.196;-97.114;2023-11-21T07:47:22;11.60;99.90
19622;DHT22;9958;33.196;-97.114;2023-11-21T07:49:53;11.60;99.90
19622;DHT22;9958;33.196;-97.114;2023-11-21T07:52:22;11.60;99.90
19622;DHT22;9958;33.196;-97.114;2023-11-21T07:54:50;11.60;99.90
19622;DHT22;9958;33.196;-97.114;2023-11-21T07:57:19;11.60;99.90
19622;DHT22;9958;33.196;-97.114;2023-11-21T07:59:48;11.70;99.90
19622;DHT22;9958;33.196;-97.114;2023-11-21T08:02:20;11.60;99.90
19622;DHT22;9958;33.196;-97.114;2023-11-21T08:04:48;11.60;99.90
19622;DHT22;9958;33.196;-97.114;2023-11-21T08:07:17;11.60;99.90
19622;DHT22;9958;33.196;-97.114;2023-11-21T08:09:45;11.70;99.90
19622;DHT22;9958;33.196;-97.114;2023-11-21T08:12:16;11.60;99.90
19622;DHT22;9958;33.196;-97.114;2023-11-21T08:14:44;11.60;99.90
19622;DHT22;9958;33.196;-97.114;2023-11-21T08:17:14;11.60;99.90
19622;DHT22;9958;33.196;-97.114;2023-11-21T08:19:42;11.50;99.90
19622;DHT22;9958;33.196;-97.114;2023-11-21T08:22:11;11.50;99.90
19622;DHT22;9958;33.196;-97.114;2023-11-21T08:24:39;11.60;99.90
19622;DHT22;9958;33.196;-97.114;2023-11-21T08:27:07;11.60;99.90
19622;DHT22;9958;33.196;-97.114;2023-11-21T08:29:36;11.50;99.90
19622;DHT22;9958;33.196;-97.114;2023-11-21T08:32:05;11.60;99.90
19622;DHT22;9958;33.196;-97.114;2023-11-21T08:34:35;11.60;99.90
19622;DHT22;9958;33.196;-97.114;2023-11-21T08:37:04;11.50;99.90
19622;DHT22;9958;33.196;-97.114;2023-11-21T08:39:32;11.60;99.90
19622;DHT22;9958;33.196;-97.114;2023-11-21T08:42:00;11.60;99.90
19622;DHT22;9958;33.196;-97.114;2023-11-21T08:44:28;11.50;99.90
19622;DHT22;9958;33.196;-97.114;2023-11-21T08:46:58;11.50;99.90
19622;DHT22;9958;33.196;-97.114;2023-11-21T08:49:26;11.50;99.90
19622;DHT22;9958;33.196;-97.114;2023-11-21T08:51:57;11.50;99.90
19622;DHT22;9958;33.196;-97.114;2023-11-21T08:54:26;11.50;99.90
19622;DHT22;9958;33.196;-97.114;2023-11-21T08:56:54;11.50;99.90
19622;DHT22;9958;33.196;-97.114;2023-11-21T08:59:24;11.50;99.90
19622;DHT22;9958;33.196;-97.114;2023-11-21T09:01:52;11.50;99.90
19622;DHT22;9958;33.196;-97.114;2023-11-21T09:04:21;11.50;99.90
19622;DHT22;9958;33.196;-97.114;2023-11-21T09:06:49;11.50;99.90
19622;DHT22;9958;33.196;-97.114;2023-11-21T09:09:19;11.50;99.90
19622;DHT22;9958;33.196;-97.114;2023-11-21T09:11:47;11.60;99.90
19622;DHT22;9958;33.196;-97.114;2023-11-21T09:14:16;11.50;99.90
19622;DHT22;9958;33.196;-97.114;2023-11-21T09:16:44;11.50;99.90
19622;DHT22;9958;33.196;-97.114;2023-11-21T09:19:13;11.50;99.90
19622;DHT22;9958;33.196;-97.114;2023-11-21T09:21:42;11.50;99.90
19622;DHT22;9958;33.196;-97.114;2023-11-21T09:24:10;11.40;99.90
19622;DHT22;9958;33.196;-97.114;2023-11-21T09:26:40;11.40;99.90
19622;DHT22;9958;33.196;-97.114;2023-11-21T09:29:08;11.40;99.90
19622;DHT22;9958;33.196;-97.114;2023-11-21T09:31:37;11.40;99.90
19622;DHT22;9958;33.196;-97.114;2023-11-21T09:34:05;11.40;99.90
19622;DHT22;9958;33.196;-97.114;2023-11-21T09:36:33;11.40;99.90
19622;DHT22;9958;33.196;-97.114;2023-11-21T09:39:02;11.40;99.90
19622;DHT22;9958;33.196;-97.114;2023-11-21T09:41:37;11.40;99.90
19622;DHT22;9958;33.196;-97.114;2023-11-21T09:44:13;11.40;99.90
19622;DHT22;9958;33.196;-97.114;2023-11-21T09:46:42;11.40;99.90
19622;DHT22;9958;33.196;-97.114;2023-11-21T09:49:11;11.40;99.90
19622;DHT22;9958;33.196;-97.114;2023-11-21T09:51:42;11.40;99.90
19622;DHT22;9958;33.196;-97.114;2023-11-21T09:54:11;11.30;99.90
19622;DHT22;9958;33.196;-97.114;2023-11-21T09:56:41;11.30;99.90
19622;DHT22;9958;33.196;-97.114;2023-11-21T09:59:15;11.30;99.90
19622;DHT22;9958;33.196;-97.114;2023-11-21T10:01:43;11.20;99.90
19622;DHT22;9958;33.196;-97.114;2023-11-21T10:04:13;11.20;99.90
19622;DHT22;9958;33.196;-97.114;2023-11-21T10:06:42;11.10;99.90
19622;DHT22;9958;33.196;-97.114;2023-11-21T10:09:13;11.10;99.90
19622;DHT22;9958;33.196;-97.114;2023-11-21T10:11:42;11.00;99.90
19622;DHT22;9958;33.196;-97.114;2023-11-21T10:14:13;11.00;99.90
19622;DHT22;9958;33.196;-97.114;2023-11-21T10:16:42;11.00;99.90
19622;DHT22;9958;33.196;-97.114;2023-11-21T10:19:13;10.90;99.90
19622;DHT22;9958;33.196;-97.114;2023-11-21T10:21:42;10.90;99.90
19622;DHT22;9958;33.196;-97.114;2023-11-21T10:24:11;10.90;99.90
19622;DHT22;9958;33.196;-97.114;2023-11-21T10:26:40;10.90;99.90
19622;DHT22;9958;33.196;-97.114;2023-11-21T10:29:08;10.90;99.90
19622;DHT22;9958;33.196;-97.114;2023-11-21T10:31:40;10.80;99.90
19622;DHT22;9958;33.196;-97.114;2023-11-21T10:34:15;10.80;99.90
19622;DHT22;9958;33.196;-97.114;2023-11-21T10:36:44;10.80;99.90
19622;DHT22;9958;33.196;-97.114;2023-11-21T10:39:14;10.80;99.90
19622;DHT22;9958;33.196;-97.114;2023-11-21T10:41:45;10.70;99.90
19622;DHT22;9958;33.196;-97.114;2023-11-21T10:44:14;10.60;99.90
19622;DHT22;9958;33.196;-97.114;2023-11-21T10:46:49;10.70;99.90
19622;DHT22;9958;33.196;-97.114;2023-11-21T10:49:18;10.60;99.90
19622;DHT22;9958;33.196;-97.114;2023-11-21T10:51:47;10.60;99.90
19622;DHT22;9958;33.196;-97.114;2023-11-21T10:54:20;10.60;99.90
19622;DHT22;9958;33.196;-97.114;2023-11-21T10:56:50;10.60;99.90
19622;DHT22;9958;33.196;-97.114;2023-11-21T10:59:19;10.70;99.90
19622;DHT22;9958;33.196;-97.114;2023-11-21T11:01:53;10.60;99.90
19622;DHT22;9958;33.196;-97.114;2023-11-21T11:04:23;10.70;99.90
19622;DHT22;9958;33.196;-97.114;2023-11-21T11:06:56;10.60;99.90
19622;DHT22;9958;33.196;-97.114;2023-11-21T11:09:25;10.60;99.90
19622;DHT22;9958;33.196;-97.114;2023-11-21T11:11:54;10.60;99.90
19622;DHT22;9958;33.196;-97.114;2023-11-21T11:14:23;10.60;99.90
19622;DHT22;9958;33.196;-97.114;2023-11-21T11:16:54;10.60;99.90
19622;DHT22;9958;33.196;-97.114;2023-11-21T11:19:23;10.60;99.90
19622;DHT22;9958;33.196;-97.114;2023-11-21T11:22:00;10.60;99.90
19622;DHT22;9958;33.196;-97.114;2023-11-21T11:24:53;10.60;99.90
19622;DHT22;9958;33.196;-97.114;2023-11-21T11:27:34;10.50;99.90
19622;DHT22;9958;33.196;-97.114;2023-11-21T11:30:14;10.50;99.90
19622;DHT22;9958;33.196;-97.114;2023-11-21T11:32:54;10.50;99.90
19622;DHT22;9958;33.196;-97.114;2023-11-21T11:35:29;10.50;99.90
19622;DHT22;9958;33.196;-97.114;2023-11-21T11:38:01;10.50;99.90
19622;DHT22;9958;33.196;-97.114;2023-11-21T11:40:39;10.50;99.90
19622;DHT22;9958;33.196;-97.114;2023-11-21T11:43:08;10.50;99.90
19622;DHT22;9958;33.196;-97.114;2023-11-21T11:45:36;10.50;99.90
19622;DHT22;9958;33.196;-97.114;2023-11-21T11:48:11;10.50;99.90
19622;DHT22;9958;33.196;-97.114;2023-11-21T11:51:01;10.50;99.90
19622;DHT22;9958;33.196;-97.114;2023-11-21T11:53:37;10.50;99.90
19622;DHT22;9958;33.196;-97.114;2023-11-21T11:56:24;10.50;99.90
19622;DHT22;9958;33.196;-97.114;2023-11-21T11:58:55;10.50;99.90
19622;DHT22;9958;33.196;-97.114;2023-11-21T12:01:26;10.50;99.90
19622;DHT22;9958;33.196;-97.114;2023-11-21T12:04:24;10.50;99.90
19622;DHT22;9958;33.196;-97.114;2023-11-21T12:07:00;10.50;99.90
19622;DHT22;9958;33.196;-97.114;2023-11-21T12:09:30;10.50;99.90
19622;DHT22;9958;33.196;-97.114;2023-11-21T12:11:59;10.50;99.90
19622;DHT22;9958;33.196;-97.114;2023-11-21T12:14:28;10.50;99.90
19622;DHT22;9958;33.196;-97.114;2023-11-21T12:16:56;10.50;99.90
19622;DHT22;9958;33.196;-97.114;2023-11-21T12:19:28;10.60;99.90
19622;DHT22;9958;33.196;-97.114;2023-11-21T12:21:56;10.60;99.90
19622;DHT22;9958;33.196;-97.114;2023-11-21T12:24:25;10.60;99.90
19622;DHT22;9958;33.196;-97.114;2023-11-21T12:26:55;10.60;99.90
19622;DHT22;9958;33.196;-97.114;2023-11-21T12:29:23;10.60;99.90
19622;DHT22;9958;33.196;-97.114;2023-11-21T12:31:51;10.60;99.90
19622;DHT22;9958;33.196;-97.114;2023-11-21T12:34:20;10.60;99.90
19622;DHT22;9958;33.196;-97.114;2023-11-21T12:36:51;10.60;99.90
19622;DHT22;9958;33.196;-97.114;2023-11-21T12:39:21;10.60;99.90
19622;DHT22;9958;33.196;-97.114;2023-11-21T12:41:49;10.60;99.90
19622;DHT22;9958;33.196;-97.114;2023-11-21T12:44:18;10.60;99.90
19622;DHT22;9958;33.196;-97.114;2023-11-21T12:46:46;10.60;99.90
19622;DHT22;9958;33.196;-97.114;2023-11-21T12:49:14;10.60;99.90
19622;DHT22;9958;33.196;-97.114;2023-11-21T12:51:45;10.60;99.90
19622;DHT22;9958;33.196;-97.114;2023-11-21T12:54:15;10.70;99.90
19622;DHT22;9958;33.196;-97.114;2023-11-21T12:56:46;10.70;99.90
19622;DHT22;9958;33.196;-97.114;2023-11-21T12:59:15;10.70;99.90
19622;DHT22;9958;33.196;-97.114;2023-11-21T13:01:44;10.70;99.90
19622;DHT22;9958;33.196;-97.114;2023-11-21T13:04:12;10.70;99.90
19622;DHT22;9958;33.196;-97.114;2023-11-21T13:06:41;10.70;99.90
19622;DHT22;9958;33.196;-97.114;2023-11-21T13:09:09;10.70;99.90
19622;DHT22;9958;33.196;-97.114;2023-11-21T13:11:40;10.70;99.90
19622;DHT22;9958;33.196;-97.114;2023-11-21T13:14:11;10.70;99.90
19622;DHT22;9958;33.196;-97.114;2023-11-21T13:16:40;10.70;99.90
19622;DHT22;9958;33.196;-97.114;2023-11-21T13:19:12;10.70;99.90
19622;DHT22;9958;33.196;-97.114;2023-11-21T13:21:40;10.70;99.90
19622;DHT22;9958;33.196;-97.114;2023-11-21T13:24:09;10.70;99.90
19622;DHT22;9958;33.196;-97.114;2023-11-21T13:26:38;10.70;99.90
19622;DHT22;9958;33.196;-97.114;2023-11-21T13:29:07;10.70;99.90
19622;DHT22;9958;33.196;-97.114;2023-11-21T13:31:39;10.70;99.90
19622;DHT22;9958;33.196;-97.114;2023-11-21T13:34:07;10.70;99.90
19622;DHT22;9958;33.196;-97.114;2023-11-21T13:36:36;10.70;99.90
19622;DHT22;9958;33.196;-97.114;2023-11-21T13:39:04;10.70;99.90
19622;DHT22;9958;33.196;-97.114;2023-11-21T13:41:34;10.70;99.90
19622;DHT22;9958;33.196;-97.114;2023-11-21T13:44:04;10.80;99.90
19622;DHT22;9958;33.196;-97.114;2023-11-21T13:46:44;10.80;99.90
19622;DHT22;9958;33.196;-97.114;2023-11-21T13:49:12;10.80;99.90
19622;DHT22;9958;33.196;-97.114;2023-11-21T13:51:42;10.80;99.90
19622;DHT22;9958;33.196;-97.114;2023-11-21T13:54:11;10.80;99.90
19622;DHT22;9958;33.196;-97.114;2023-11-21T13:56:40;10.80;99.90
19622;DHT22;9958;33.196;-97.114;2023-11-21T13:59:10;10.80;99.90
19622;DHT22;9958;33.196;-97.114;2023-11-21T14:01:48;10.80;99.90
19622;DHT22;9958;33.196;-97.114;2023-11-21T14:04:25;10.80;99.90
19622;DHT22;9958;33.196;-97.114;2023-11-21T14:07:13;10.80;99.90
19622;DHT22;9958;33.196;-97.114;2023-11-21T14:09:58;10.80;99.90
19622;DHT22;9958;33.196;-97.114;2023-11-21T14:12:27;10.80;99.90
19622;DHT22;9958;33.196;-97.114;2023-11-21T14:14:55;10.80;99.90
19622;DHT22;9958;33.196;-97.114;2023-11-21T14:17:25;10.80;99.90
19622;DHT22;9958;33.196;-97.114;2023-11-21T14:19:54;10.80;99.90
19622;DHT22;9958;33.196;-97.114;2023-11-21T14:22:22;10.80;99.90
19622;DHT22;9958;33.196;-97.114;2023-11-21T14:24:52;10.80;99.90
19622;DHT22;9958;33.196;-97.114;2023-11-21T14:27:22;10.70;99.90
19622;DHT22;9958;33.196;-97.114;2023-11-21T14:29:50;10.70;99.90
19622;DHT22;9958;33.196;-97.114;2023-11-21T14:32:19;10.70;99.90
19622;DHT22;9958;33.196;-97.114;2023-11-21T14:34:49;10.80;99.90
19622;DHT22;9958;33.196;-97.114;2023-11-21T14:37:17;10.70;99.90
19622;DHT22;9958;33.196;-97.114;2023-11-21T14:39:46;10.70;99.90
19622;DHT22;9958;33.196;-97.114;2023-11-21T14:42:16;10.70;99.90
19622;DHT22;9958;33.196;-97.114;2023-11-21T14:44:50;10.70;99.90
19622;DHT22;9958;33.196;-97.114;2023-11-21T14:47:19;10.80;99.90
19622;DHT22;9958;33.196;-97.114;2023-11-21T14:49:53;10.90;99.90
19622;DHT22;9958;33.196;-97.114;2023-11-21T14:52:22;10.90;99.90
19622;DHT22;9958;33.196;-97.114;2023-11-21T14:55:00;10.90;99.90
19622;DHT22;9958;33.196;-97.114;2023-11-21T14:57:45;10.90;99.90
19622;DHT22;9958;33.196;-97.114;2023-11-21T15:00:17;11.00;99.90
19622;DHT22;9958;33.196;-97.114;2023-11-21T15:03:04;11.00;99.90
19622;DHT22;9958;33.196;-97.114;2023-11-21T15:05:35;11.00;99.90
19622;DHT22;9958;33.196;-97.114;2023-11-21T15:08:05;11.00;99.90
19622;DHT22;9958;33.196;-97.114;2023-11-21T15:10:46;11.10;99.90
19622;DHT22;9958;33.196;-97.114;2023-11-21T15:13:16;11.10;99.90
19622;DHT22;9958;33.196;-97.114;2023-11-21T15:15:43;11.10;99.90
19622;DHT22;9958;33.196;-97.114;2023-11-21T15:18:11;11.20;99.90
19622;DHT22;9958;33.196;-97.114;2023-11-21T15:20:42;11.20;99.90
19622;DHT22;9958;33.196;-97.114;2023-11-21T15:23:10;11.30;99.90
19622;DHT22;9958;33.196;-97.114;2023-11-21T15:25:40;11.30;99.90
19622;DHT22;9958;33.196;-97.114;2023-11-21T15:28:08;11.30;99.90
19622;DHT22;9958;33.196;-97.114;2023-11-21T15:30:37;11.40;99.90
19622;DHT22;9958;33.196;-97.114;2023-11-21T15:33:06;11.50;99.90